sim
Sign-in with your pilot id or email,
or register
Callsign
Passwort

Schedule Details

Flight Number: OEO6717
Departure: Toronto Pearson International Airport (CYYZ) at 22:50
Arrival: Munich Airport (EDDM) at 07:10

Weather Information
Getting current METAR information for CYYZ 231500Z 32006KT 270V330 15SM SKC 21/12 A2996 RMK SLP147 DENSITY ALT 1400FT
Getting current METAR information for EDDM 231520Z 25007KT 220V280 9999 FEW045 20/14 Q1009 NOSIG

Schedule Frequency

Route Map